createdAt,value
2022-11-28T00:01:36.367Z,2.65
2022-11-28T00:04:10.225Z,2.56
2022-11-28T00:06:48.870Z,2.54
2022-11-28T00:09:16.091Z,2.40
2022-11-28T00:11:45.615Z,2.30
2022-11-28T00:14:15.350Z,2.31
2022-11-28T00:16:50.735Z,2.27
2022-11-28T00:19:17.303Z,2.13
2022-11-28T00:21:43.754Z,2.23
2022-11-28T00:24:10.355Z,2.14
2022-11-28T00:26:48.358Z,2.16
2022-11-28T00:29:18.238Z,2.14
2022-11-28T00:31:46.233Z,2.06
2022-11-28T00:34:14.418Z,2.03
2022-11-28T00:36:43.359Z,2.03
2022-11-28T00:39:11.435Z,1.97
2022-11-28T00:41:37.929Z,1.97
2022-11-28T00:44:04.480Z,1.98
2022-11-28T00:46:30.944Z,1.94
2022-11-28T00:49:04.355Z,2.03
2022-11-28T00:51:32.224Z,2.12
2022-11-28T00:54:00.765Z,2.11
2022-11-28T00:56:31.273Z,2.06
2022-11-28T00:58:58.193Z,2.00
2022-11-28T01:01:35.032Z,1.97
2022-11-28T01:04:06.729Z,1.98
2022-11-28T01:06:40.554Z,2.01
2022-11-28T01:09:16.470Z,2.06
2022-11-28T01:11:46.168Z,2.04
2022-11-28T01:14:13.767Z,2.03
2022-11-28T01:16:40.443Z,1.96
2022-11-28T01:19:07.293Z,1.96
2022-11-28T01:21:34.364Z,1.94
2022-11-28T01:24:01.060Z,1.96
2022-11-28T01:26:29.774Z,2.00
2022-11-28T01:29:00.290Z,1.99
2022-11-28T01:31:28.982Z,1.90
2022-11-28T01:33:56.407Z,1.89
2022-11-28T01:36:23.457Z,1.92
2022-11-28T01:39:09.466Z,1.94
2022-11-28T01:41:36.138Z,2.00
2022-11-28T01:44:05.628Z,2.00
2022-11-28T01:46:38.616Z,1.95
2022-11-28T01:49:13.428Z,2.02
2022-11-28T01:51:42.885Z,1.92
2022-11-28T01:54:09.362Z,1.91
2022-11-28T01:56:51.119Z,1.92
2022-11-28T01:59:25.924Z,1.92
2022-11-28T02:02:14.952Z,1.88
2022-11-28T02:04:42.116Z,1.89
2022-11-28T02:07:08.797Z,1.92
2022-11-28T02:09:35.375Z,1.90
2022-11-28T02:13:02.848Z,1.92
2022-11-28T02:16:17.010Z,1.67
2022-11-28T02:19:39.490Z,1.66
2022-11-28T02:22:45.123Z,1.69
2022-11-28T02:25:54.395Z,1.71
2022-11-28T02:29:16.633Z,1.52
2022-11-28T02:32:05.108Z,1.43
2022-11-28T02:35:24.681Z,1.48
2022-11-28T02:38:38.086Z,1.53
2022-11-28T02:41:28.278Z,1.57
2022-11-28T02:44:04.521Z,1.56
2022-11-28T02:50:33.643Z,1.37
2022-11-28T02:53:07.781Z,1.31
2022-11-28T02:55:41.265Z,1.28
2022-11-28T02:58:09.663Z,1.32
2022-11-28T03:00:39.206Z,1.32
2022-11-28T03:03:13.490Z,1.30
2022-11-28T03:05:55.854Z,1.31
2022-11-28T03:09:02.248Z,1.34
2022-11-28T03:11:43.955Z,1.40
2022-11-28T03:14:38.353Z,1.36
2022-11-28T03:17:11.674Z,1.39
2022-11-28T03:19:47.864Z,1.29
2022-11-28T03:22:29.870Z,1.18
2022-11-28T03:25:10.944Z,1.17
2022-11-28T03:28:21.966Z,1.20
2022-11-28T03:31:03.885Z,1.27
2022-11-28T03:33:38.522Z,1.26
2022-11-28T03:36:12.680Z,1.27
2022-11-28T03:38:42.619Z,1.31
2022-11-28T03:41:15.222Z,1.27
2022-11-28T03:43:46.774Z,1.28
2022-11-28T03:46:16.565Z,1.29
2022-11-28T03:48:47.124Z,1.24
2022-11-28T03:51:21.238Z,1.21
2022-11-28T03:54:01.312Z,1.20
2022-11-28T03:56:46.854Z,1.18
2022-11-28T03:59:17.296Z,1.12
2022-11-28T04:05:48.827Z,1.05
2022-11-28T04:08:22.057Z,1.07
2022-11-28T04:10:54.851Z,1.11
2022-11-28T04:13:37.231Z,1.14
2022-11-28T04:16:13.754Z,1.08
2022-11-28T04:45:11.877Z,0.74
2022-11-28T04:47:38.450Z,0.78
2022-11-28T04:50:05.727Z,0.79
2022-11-28T04:52:59.672Z,0.85
2022-11-28T04:55:31.165Z,0.92
2022-11-28T04:58:36.637Z,1.05
2022-11-28T05:01:05.399Z,1.13
2022-11-28T05:03:38.769Z,1.24
2022-11-28T05:06:08.405Z,1.16
2022-11-28T05:08:35.021Z,1.25
2022-11-28T05:11:01.602Z,1.16
2022-11-28T05:13:35.419Z,1.12
2022-11-28T05:16:03.437Z,1.21
2022-11-28T05:18:29.979Z,1.23
2022-11-28T05:20:58.812Z,1.20
2022-11-28T05:23:25.549Z,1.26
2022-11-28T05:25:52.033Z,1.20
2022-11-28T05:28:18.497Z,1.24
2022-11-28T05:30:44.927Z,1.31
2022-11-28T05:33:11.397Z,1.31
2022-11-28T05:35:39.867Z,1.34
2022-11-28T05:38:09.385Z,1.32
2022-11-28T05:40:44.331Z,1.30
2022-11-28T05:43:12.580Z,1.31
2022-11-28T05:45:43.219Z,1.41
2022-11-28T05:48:10.045Z,1.41
2022-11-28T05:50:40.104Z,1.34
2022-11-28T05:53:06.940Z,1.36
2022-11-28T05:55:33.774Z,1.28
2022-11-28T05:58:00.291Z,1.30
2022-11-28T06:00:26.723Z,1.38
2022-11-28T06:02:57.087Z,1.38
2022-11-28T06:05:42.150Z,1.19
2022-11-28T06:08:12.931Z,1.17
2022-11-28T06:10:39.522Z,1.14
2022-11-28T06:13:05.957Z,1.15
2022-11-28T06:15:37.279Z,1.14
2022-11-28T06:18:04.513Z,1.16
2022-11-28T06:20:34.439Z,1.11
2022-11-28T06:23:01.010Z,1.14
2022-11-28T06:25:27.521Z,1.11
2022-11-28T06:27:53.946Z,1.16
2022-11-28T06:30:20.796Z,1.24
2022-11-28T06:32:47.233Z,1.22
2022-11-28T06:35:14.139Z,1.23
2022-11-28T06:37:40.712Z,1.23
2022-11-28T06:40:07.764Z,1.32
2022-11-28T06:42:37.266Z,1.24
2022-11-28T06:45:05.305Z,1.26
2022-11-28T06:47:31.867Z,1.21
2022-11-28T06:49:58.606Z,1.09
2022-11-28T06:52:25.023Z,1.15
2022-11-28T06:54:51.951Z,1.16
2022-11-28T06:57:18.439Z,1.05
2022-11-28T06:59:45.171Z,1.09
2022-11-28T07:02:12.234Z,1.08
2022-11-28T07:04:38.793Z,1.11
2022-11-28T07:07:06.210Z,1.11
2022-11-28T07:09:32.737Z,1.13
2022-11-28T07:11:59.823Z,1.06
2022-11-28T07:14:26.523Z,0.98
2022-11-28T07:16:53.566Z,0.92
2022-11-28T07:19:23.015Z,0.84
2022-11-28T07:21:50.226Z,0.86
2022-11-28T07:24:18.057Z,0.86
2022-11-28T07:26:46.492Z,0.92
2022-11-28T07:29:17.721Z,0.67
2022-11-28T07:31:44.531Z,0.58
2022-11-28T07:34:11.723Z,0.58
2022-11-28T07:36:38.627Z,0.61
2022-11-28T07:39:08.381Z,0.62
2022-11-28T07:41:35.072Z,0.63
2022-11-28T07:44:02.810Z,0.61
2022-11-28T07:46:31.105Z,0.68
2022-11-28T07:48:57.739Z,0.68
2022-11-28T07:51:31.139Z,0.53
2022-11-28T07:53:57.996Z,0.55
2022-11-28T07:56:35.094Z,0.47
2022-11-28T07:59:11.583Z,0.53
2022-11-28T08:01:38.513Z,0.65
2022-11-28T08:04:07.256Z,0.73
2022-11-28T08:06:37.150Z,0.75
2022-11-28T08:09:06.577Z,0.67
2022-11-28T08:11:33.399Z,0.53
2022-11-28T08:13:59.942Z,0.58
2022-11-28T08:16:28.081Z,0.67
2022-11-28T08:18:55.629Z,0.49
2022-11-28T08:21:24.883Z,0.52
2022-11-28T08:23:53.002Z,0.57
2022-11-28T08:26:28.822Z,0.61
2022-11-28T08:28:57.190Z,0.60
2022-11-28T08:31:26.172Z,0.62
2022-11-28T08:33:54.798Z,0.65
2022-11-28T08:36:22.873Z,0.67
2022-11-28T08:39:09.515Z,0.64
2022-11-28T08:41:40.086Z,0.67
2022-11-28T08:44:06.533Z,0.71
2022-11-28T08:46:33.502Z,0.77
2022-11-28T08:49:04.369Z,0.84
2022-11-28T08:51:31.218Z,0.94
2022-11-28T08:54:00.399Z,0.98
2022-11-28T08:56:27.178Z,1.00
2022-11-28T08:58:54.567Z,1.02
2022-11-28T09:01:24.665Z,1.04
2022-11-28T09:03:51.890Z,1.05
2022-11-28T09:06:18.877Z,1.06
2022-11-28T09:08:45.631Z,1.15
2022-11-28T09:11:15.004Z,1.03
2022-11-28T09:13:41.949Z,1.00
2022-11-28T09:16:08.705Z,0.97
2022-11-28T09:18:35.300Z,0.91
2022-11-28T09:21:07.472Z,0.60
2022-11-28T09:23:33.926Z,0.59
2022-11-28T09:26:01.787Z,0.62
2022-11-28T09:28:29.012Z,0.61
2022-11-28T09:31:15.142Z,0.72
2022-11-28T09:33:41.906Z,0.65
2022-11-28T09:36:10.896Z,0.75
2022-11-28T09:38:37.821Z,0.90
2022-11-28T09:41:04.808Z,0.97
2022-11-28T09:43:35.919Z,0.98
2022-11-28T09:46:06.285Z,0.82
2022-11-28T09:48:49.319Z,0.97
2022-11-28T09:51:22.579Z,0.97
2022-11-28T09:54:09.011Z,1.06
2022-11-28T09:56:35.952Z,1.07
2022-11-28T09:59:04.158Z,1.05
2022-11-28T10:01:38.327Z,1.02
2022-11-28T10:04:12.986Z,0.68
2022-11-28T10:06:52.580Z,0.59
2022-11-28T10:09:39.576Z,0.61
2022-11-28T10:12:30.892Z,0.75
2022-11-28T10:15:07.349Z,0.74
2022-11-28T10:17:39.374Z,0.82
2022-11-28T10:20:10.636Z,0.82
2022-11-28T10:23:05.661Z,0.81
2022-11-28T10:25:37.944Z,0.71
2022-11-28T10:28:11.491Z,0.68
2022-11-28T10:30:42.879Z,0.64
2022-11-28T10:33:27.853Z,0.73
2022-11-28T10:35:59.947Z,0.77
2022-11-28T10:38:31.330Z,0.44
2022-11-28T10:41:06.969Z,0.41
2022-11-28T10:44:03.026Z,0.56
2022-11-28T10:46:36.983Z,0.55
2022-11-28T10:49:22.230Z,0.60
2022-11-28T10:52:09.158Z,0.70
2022-11-28T10:54:59.115Z,0.55
2022-11-28T10:57:58.024Z,0.49
2022-11-28T11:00:24.905Z,0.51
2022-11-28T11:02:54.992Z,0.51
2022-11-28T11:05:25.853Z,0.60
2022-11-28T11:07:56.423Z,0.66
2022-11-28T11:10:27.197Z,0.64
2022-11-28T11:12:53.780Z,0.59
2022-11-28T11:15:31.686Z,0.60
2022-11-28T11:18:02.633Z,0.56
2022-11-28T11:20:33.730Z,0.46
2022-11-28T11:23:03.416Z,0.40
2022-11-28T11:25:32.081Z,0.54
2022-11-28T11:28:02.954Z,0.64
2022-11-28T11:30:42.792Z,0.71
2022-11-28T11:33:16.171Z,0.80
2022-11-28T11:35:49.650Z,0.83
2022-11-28T11:38:16.526Z,0.85
2022-11-28T11:40:43.152Z,0.95
2022-11-28T11:43:28.534Z,0.91
2022-11-28T11:46:13.350Z,0.83
2022-11-28T11:48:39.790Z,0.75
2022-11-28T11:51:07.747Z,0.76
2022-11-28T11:53:34.597Z,0.76
2022-11-28T11:56:03.042Z,0.80
2022-11-28T11:58:47.293Z,0.84
2022-11-28T12:01:16.170Z,0.96
2022-11-28T12:03:49.169Z,0.92
2022-11-28T12:06:25.160Z,0.85
2022-11-28T12:08:55.430Z,0.90
2022-11-28T12:11:47.229Z,0.91
2022-11-28T12:14:19.843Z,0.97
2022-11-28T12:16:54.991Z,0.81
2022-11-28T12:19:40.977Z,0.74
2022-11-28T12:22:46.259Z,0.73
2022-11-28T12:25:41.794Z,0.66
2022-11-28T12:28:30.089Z,0.57
2022-11-28T12:31:23.081Z,0.55
2022-11-28T12:34:03.283Z,0.51
2022-11-28T12:37:01.294Z,0.46
2022-11-28T12:39:40.298Z,0.45
2022-11-28T12:42:09.593Z,0.50
2022-11-28T12:44:52.507Z,0.54
2022-11-28T12:47:37.551Z,0.55
2022-11-28T12:50:13.072Z,0.60
2022-11-28T12:52:47.897Z,0.61
2022-11-28T12:55:26.499Z,0.65
2022-11-28T12:58:15.556Z,0.51
2022-11-28T13:01:23.345Z,0.52
2022-11-28T13:04:14.590Z,0.55
2022-11-28T13:07:13.402Z,0.60
2022-11-28T13:09:57.504Z,0.59
2022-11-28T13:12:54.349Z,0.61
2022-11-28T13:15:27.065Z,0.69
2022-11-28T13:18:08.563Z,0.72
2022-11-28T13:21:04.359Z,0.72
2022-11-28T13:23:35.626Z,0.82
2022-11-28T13:26:12.366Z,0.71
2022-11-28T13:28:57.244Z,0.72
2022-11-28T13:31:43.240Z,0.73
2022-11-28T13:34:15.887Z,0.68
2022-11-28T13:40:14.740Z,0.62
2022-11-28T13:43:07.046Z,0.48
2022-11-28T13:45:39.169Z,0.46
2022-11-28T13:48:57.287Z,0.56
2022-11-28T13:51:30.840Z,0.56
2022-11-28T13:54:20.329Z,0.63
2022-11-28T13:56:48.838Z,0.68
2022-11-28T13:59:18.809Z,0.61
2022-11-28T14:01:53.415Z,0.52
2022-11-28T14:04:19.967Z,0.61
2022-11-28T14:06:48.694Z,0.69
2022-11-28T14:09:15.363Z,0.73
2022-11-28T14:12:13.906Z,0.65
2022-11-28T14:14:50.350Z,0.56
2022-11-28T14:17:45.987Z,0.62
2022-11-28T14:20:12.502Z,0.75
2022-11-28T14:23:10.992Z,0.88
2022-11-28T14:25:46.114Z,0.81
2022-11-28T14:28:36.626Z,0.88
2022-11-28T14:31:05.881Z,0.99
2022-11-28T14:33:43.284Z,0.87
2022-11-28T14:36:30.871Z,0.90
2022-11-28T14:39:05.864Z,0.87
2022-11-28T14:41:32.409Z,0.80
2022-11-28T14:44:36.185Z,0.68
2022-11-28T14:47:14.567Z,0.61
2022-11-28T14:49:41.382Z,0.63
2022-11-28T14:52:44.688Z,0.68
2022-11-28T14:55:29.362Z,0.64
2022-11-28T14:58:04.280Z,0.62
2022-11-28T15:00:57.915Z,0.72
2022-11-28T15:03:35.913Z,0.72
2022-11-28T15:06:14.236Z,0.75
2022-11-28T15:09:17.956Z,0.77
2022-11-28T15:11:58.617Z,0.76
2022-11-28T15:14:27.224Z,0.85
2022-11-28T15:17:10.684Z,0.91
2022-11-28T15:19:44.363Z,0.86
2022-11-28T15:22:33.515Z,0.89
2022-11-28T15:25:00.300Z,0.98
2022-11-28T15:27:27.793Z,1.03
2022-11-28T15:29:59.666Z,1.04
2022-11-28T15:32:28.904Z,1.15
2022-11-28T15:35:00.023Z,1.22
2022-11-28T15:37:33.515Z,1.24
2022-11-28T15:40:06.101Z,1.19
2022-11-28T15:42:35.329Z,1.21
2022-11-28T15:45:08.225Z,1.20
2022-11-28T15:47:34.964Z,1.17
2022-11-28T15:50:17.047Z,1.17
2022-11-28T15:52:56.863Z,1.23
2022-11-28T15:55:24.574Z,1.25
2022-11-28T15:57:51.314Z,1.28
2022-11-28T16:00:23.389Z,1.27
2022-11-28T16:02:55.704Z,1.32
2022-11-28T16:05:25.342Z,1.32
2022-11-28T16:11:53.137Z,1.46
2022-11-28T16:14:30.772Z,1.55
2022-11-28T16:17:01.561Z,1.57
2022-11-28T16:19:32.853Z,1.58
2022-11-28T16:22:09.539Z,1.56
2022-11-28T16:24:48.990Z,1.54
2022-11-28T16:27:37.861Z,1.53
2022-11-28T16:30:36.713Z,1.60
2022-11-28T16:33:53.631Z,1.72
2022-11-28T16:36:24.441Z,1.80
2022-11-28T16:39:04.766Z,1.89
2022-11-28T16:41:32.220Z,1.79
2022-11-28T16:44:02.162Z,1.95
2022-11-28T16:46:34.129Z,1.98
2022-11-28T16:49:00.686Z,1.97
2022-11-28T17:01:57.833Z,2.00
2022-11-28T17:04:26.487Z,2.01
2022-11-28T17:06:57.645Z,2.05
2022-11-28T17:09:24.113Z,2.08
2022-11-28T17:11:58.628Z,2.12
2022-11-28T17:14:25.539Z,1.96
2022-11-28T17:16:52.043Z,2.01
2022-11-28T17:19:18.570Z,1.78
2022-11-28T17:21:56.367Z,1.67
2022-11-28T17:24:26.161Z,1.81
2022-11-28T17:26:53.803Z,1.96
2022-11-28T17:29:23.764Z,1.86
2022-11-28T17:31:50.467Z,2.03
2022-11-28T17:34:23.978Z,1.95
2022-11-28T17:36:51.034Z,2.13
2022-11-28T17:39:18.659Z,2.11
2022-11-28T17:41:46.832Z,2.04
2022-11-28T17:44:23.572Z,2.19
2022-11-28T17:57:38.208Z,1.96
2022-11-28T18:00:08.589Z,2.06
2022-11-28T18:02:35.164Z,2.25
2022-11-28T18:05:01.677Z,2.14
2022-11-28T18:07:28.334Z,2.00
2022-11-28T18:09:55.064Z,2.03
2022-11-28T18:12:26.973Z,2.19
2022-11-28T18:14:53.455Z,2.04
2022-11-28T18:17:19.925Z,2.15
2022-11-28T18:19:46.538Z,2.09
2022-11-28T18:22:13.212Z,2.14
2022-11-28T18:24:39.646Z,2.06
2022-11-28T18:27:06.103Z,2.09
2022-11-28T20:15:41.531Z,1.86
2022-11-28T21:04:24.432Z,1.92
